Norris Rancho Marino Reserve, California Weather observations

Data are for 10 minute period ending at time listed.
 Day   Time   Solar   Ave.   Ave.  Ave.  Vector  Max.   Baro.   Total    
  of    of     Rad.   Air    Rel.  Wind   Wind   Wind  Press.  Precip.   
Year   Day            Temp.  Hum.  Speed  Dir.   Gust                    
2014   (PST)  Kw/m2    F      %     mph   deg.    mph    mb.     in.     
-------------------------------------------------------------------------
 328   13:50   0.47   72.0    24    4.5    18    17.8   1021.6    0.00 
 328   14:00   0.46   71.5    24    6.5    11    13.6   1021.6    0.00 
 328   14:10   0.44   69.8    35    7.5   162     9.5   1021.6    0.00 
 328   14:20   0.41   67.0    44    7.3   215    11.0   1021.7    0.00 
 328   14:30   0.39   65.3    65    7.5   251    11.7   1022.0    0.00 
 328   14:40   0.36   64.4    64    8.9   275    12.3   1022.1    0.00 
 328   14:50   0.34   64.4    65    9.9   300    12.0   1022.3    0.00 
 328   15:00   0.29   64.1    65   11.5   308    14.2   1022.4    0.00 
 328   15:10   0.29   63.5    65   12.6   312    15.5   1022.5    0.00 
 328   15:20   0.26   63.7    62   11.3   326    14.6   1022.5    0.00 
 328   15:30   0.23   63.6    60   12.1   315    16.9   1022.5    0.00 
 328   15:40   0.20   63.4    61   10.8   297    14.2   1022.6    0.00 
 328   15:50   0.18   62.8    63   11.6   307    14.2   1022.7    0.00 
 328   16:00   0.15   62.5    63   11.6   308    14.8   1022.7    0.00 
 328   16:10   0.12   62.1    63   11.1   306    13.7   1022.8    0.00 
 328   16:20   0.10   62.0    64    8.3   310    11.8   1022.9    0.00 
 328   16:30   0.07   61.4    66    8.9   312    12.5   1023.0    0.00 
 328   16:40   0.04   60.9    69    7.3   312    10.0   1023.0    0.00 
 328   16:50   0.02   60.5    70    6.6   321     9.3   1023.1    0.00 
 328   17:00   0.01   60.0    71    5.0   333     7.7   1023.2    0.00 
 328   17:10   0.00   59.6    71    4.7   347     6.7   1023.4    0.00 
 328   17:20   0.00   59.2    72    4.9   345     6.5   1023.5    0.00 
 328   17:30   0.00   58.5    73    4.4   353     6.4   1023.5    0.00 
 328   17:40   0.00   57.9    74    2.8    12     5.6   1023.6    0.00 
 328   17:50   0.00   56.3    76    1.5   329     4.2   1023.6    0.00 
 328   18:00   0.00   56.3    78    2.3     8     3.7   1023.5    0.00 
 328   18:10   0.00   56.0    76    3.1    56     4.7   1023.5    0.00 
 328   18:20   0.00   55.9    74    4.0    64     5.5   1023.3    0.00 
 328   18:30   0.00   56.4    72    4.0    60     5.1   1023.3    0.00 
 328   18:40   0.00   56.2    71    3.8    74     5.1   1023.2    0.00 
 328   18:50   0.00   56.0    70    3.2    70     5.0   1023.2    0.00 
 328   19:00   0.00   55.3    69    4.2    75     6.4   1023.2    0.00 
 328   19:10   0.00   54.6    67    5.2    82     7.2   1023.2    0.00 
 328   19:20   0.00   55.1    65    2.3    28     4.7   1023.3    0.00 
 328   19:30   0.00   54.6    63    3.5    38     5.3   1023.3    0.00 
 328   19:40   0.00   54.8    62    3.5    21     4.9   1023.4    0.00 
 328   19:50   0.00   54.9    58    4.1    47     6.3   1023.4    0.00 
 328   20:00   0.00   55.8    55    3.4   105     6.3   1023.5    0.00 
 328   20:10   0.00   56.0    52    3.7    77     5.9   1023.6    0.00 
 328   20:20   0.00   55.9    52    2.3    84     4.5   1023.7    0.00 
 328   20:30   0.00   55.6    54    2.5    79     4.2   1023.9    0.00 
 328   20:40   0.00   56.0    53    3.0    67     5.2   1023.9    0.00 
 328   20:50   0.00   55.0    54    3.5    43     6.4   1024.0    0.00 
 328   21:00   0.00   57.9    46    7.6    48    10.7   1024.0    0.00 
 328   21:10   0.00   59.0    43    7.3    48    11.8   1024.1    0.00 
 328   21:20   0.00   58.3    44    6.7    52    11.1   1024.3    0.00 
 328   21:30   0.00   59.6    38    5.9    23    10.6   1024.3    0.00 
 328   21:40   0.00   60.3    36    6.2    38    10.2   1024.3    0.00 
 328   21:50   0.00   59.7    37    6.3    22    12.0   1024.4    0.00 
 328   22:00   0.00   59.1    38    7.0    36    11.2   1024.4    0.00 
 328   22:10   0.00   59.4    37    6.9    39    11.8   1024.3    0.00 
 328   22:20   0.00   59.4    36    6.3     7    11.5   1024.2    0.00 
 328   22:30   0.00   61.4    32    6.8    21    12.2   1024.2    0.00 
 328   22:40   0.00   60.7    34    6.3    38    11.7   1024.2    0.00 
 328   22:50   0.00   60.5    34    7.1    26    12.6   1024.2    0.00 
 328   23:00   0.00   61.6    33    7.4    14    16.4   1024.2    0.00 
 328   23:10   0.00   60.5    35    4.7    34    11.8   1024.4    0.00 
 328   23:20   0.00   60.4    36    3.0    46     9.6   1024.6    0.00 
 328   23:30   0.00   58.8    39    2.7    63     6.6   1024.5    0.00 
 328   23:40   0.00   57.4    42    2.0    82     5.3   1024.5    0.00 
 328   23:50   0.00   57.2    42    4.5    57     7.7   1024.3    0.00 
 329    0:00   0.00   58.6    39    7.2    29    13.2   1024.2    0.00 
 329    0:10   0.00   60.8    35    8.3    32    12.9   1024.0    0.00 
 329    0:20   0.00   61.1    35    6.8    44    11.8   1024.2    0.00 
 329    0:30   0.00   61.0    35    7.4    38    14.5   1024.3    0.00 
 329    0:40   0.00   61.1    35    7.4    34    11.8   1024.4    0.00 
 329    0:50   0.00   60.9    35    6.6     8    12.6   1024.4    0.00 
 329    1:00   0.00   59.4    39    2.5   109     5.8   1024.4    0.00 
 329    1:10   0.00   56.5    45    2.9    84     5.0   1024.5    0.00 
 329    1:20   0.00   55.3    46    2.1    75     4.9   1024.4    0.00 
 329    1:30   0.00   53.3    50    2.7    64     4.2   1024.3    0.00 
 329    1:40   0.00   53.3    52    4.0    64     5.3   1024.2    0.00 
 329    1:50   0.00   54.3    48    3.4    77     4.6   1024.0    0.00 
 329    2:00   0.00   53.6    50    3.2    38     4.1   1024.1    0.00 
 329    2:10   0.00   54.5    47    4.0    62     5.6   1024.1    0.00 
 329    2:20   0.00   53.6    50    3.0    60     5.3   1024.0    0.00 
 329    2:30   0.00   53.1    52    2.1    73     3.8   1024.1    0.00 
 329    2:40   0.00   53.4    51    2.2    68     3.5   1023.9    0.00 
 329    2:50   0.00   52.5    53    3.0    51     4.8   1023.8    0.00 
 329    3:00   0.00   52.9    51    2.6    47     5.9   1023.8    0.00 
 329    3:10   0.00   53.1    51    3.2    78     4.8   1023.8    0.00 
 329    3:20   0.00   53.4    50    3.1    91     5.0   1023.7    0.00 
 329    3:30   0.00   54.1    48    2.7    22     4.7   1023.6    0.00 
 329    3:40   0.00   54.2    48    2.7    43     5.3   1023.4    0.00 
 329    3:50   0.00   54.3    48    2.6    61     6.1   1023.4    0.00 
 329    4:00   0.00   53.8    49    2.4    17     4.3   1023.4    0.00 
 329    4:10   0.00   55.3    46    1.8   346     4.5   1023.3    0.00 
 329    4:20   0.00   55.9    44    2.5   342     4.4   1023.5    0.00 
 329    4:30   0.00   56.9    42    1.5   228     3.9   1023.6    0.00 
 329    4:40   0.00   55.7    45    1.3    76     3.6   1023.6    0.00 
 329    4:50   0.00   55.2    46    1.3    53     3.9   1023.6    0.00 
 329    5:00   0.00   55.7    44    2.7    43     7.8   1023.6    0.00 
 329    5:10   0.00   57.3    40    3.8    57     8.3   1023.6    0.00 
 329    5:20   0.00   57.7    38    3.4    39     8.9   1023.7    0.00 
 329    5:30   0.00   56.2    40    1.7   346     4.9   1023.9    0.00 
 329    5:40   0.00   55.7    41    0.8   352     3.2   1024.0    0.00 
 329    5:50   0.00   55.5    40    1.6   349     5.2   1024.1    0.00 
 329    6:00   0.00   54.5    44    1.7   332     3.9   1024.4    0.00 
 329    6:10   0.00   55.9    40    2.5   101     7.2   1024.3    0.00 
 329    6:20   0.00   55.3    41    3.6    63     8.1   1024.2    0.00 
 329    6:30   0.00   55.6    41    2.5    45     6.3   1024.3    0.00 
 329    6:40   0.00   55.3    42    1.9    48     6.4   1024.3    0.00 
 329    6:50   0.00   55.9    42    3.0    36     6.3   1024.4    0.00 
 329    7:00   0.01   56.2    42    2.4    28     6.2   1024.5    0.00 
 329    7:10   0.01   56.3    41    3.0   349     5.0   1024.7    0.00 
 329    7:20   0.01   56.1    42    3.1     9     4.7   1024.8    0.00 
 329    7:30   0.02   57.3    39    2.0    22     5.4   1025.0    0.00 
 329    7:40   0.05   56.4    42    2.7    51     5.0   1025.1    0.00 
 329    7:50   0.11   56.7    43    2.1    60     4.8   1025.2    0.00 
 329    8:00   0.14   60.3    36    1.7    35     4.8   1025.4    0.00 
 329    8:10   0.17   59.4    40    2.1    42     4.0   1025.7    0.00 
 329    8:20   0.20   60.4    40    0.9   353     3.4   1025.9    0.00 
 329    8:30   0.23   62.0    40    1.2   338     2.5   1026.1    0.00 
 329    8:40   0.25   63.1    38    0.4   330     1.6   1026.2    0.00 
 329    8:50   0.28   65.0    35    1.1    48     2.9   1026.2    0.00 
 329    9:00   0.31   67.1    35    1.8   243     5.0   1026.0    0.00 
 329    9:10   0.33   66.0    43    2.6   266     5.8   1025.8    0.00 
 329    9:20   0.36   65.6    51    2.4   242     4.8   1025.7    0.00 
 329    9:30   0.38   66.8    49    1.8   203     3.4   1025.6    0.00 
 329    9:40   0.40   65.9    53    1.8   220     3.1   1025.6    0.00 
 329    9:50   0.42   64.5    57    1.4   218     3.0   1025.8    0.00 
 329   10:00   0.44   65.0    58    2.0   230     3.2   1025.8    0.00 
 329   10:10   0.46   64.5    60    2.4   222     3.7   1025.8    0.00 
 329   10:20   0.48   64.1    58    2.5   228     4.2   1025.8    0.00 
 329   10:30   0.50   64.3    62    2.9   247     4.3   1025.8    0.00 
 329   10:40   0.51   64.3    58    3.2   259     4.5   1025.8    0.00 
 329   10:50   0.52   64.6    49    3.6   274     5.0   1025.7    0.00 
 329   11:00   0.53   65.6    44    3.8   264     5.9   1025.6    0.00 
 329   11:10   0.54   65.0    51    3.1   251     4.6   1025.5    0.00 
 329   11:20   0.55   65.6    47    3.6   253     5.2   1025.2    0.00 
 329   11:30   0.56   66.0    43    3.4   266     5.2   1025.1    0.00 
 329   11:40   0.56   66.4    40    3.6   268     5.5   1024.9    0.00 
 329   11:50   0.57   66.4    45    3.4   244     4.9   1024.7    0.00 
 329   12:00   0.57   66.6    42    3.7   262     5.8   1024.4    0.00 
 329   12:10   0.57   66.5    41    3.7   271     5.1   1024.3    0.00 
 329   12:20   0.56   66.6    40    3.9   271     5.7   1024.2    0.00 
 329   12:30   0.56   66.9    41    3.8   272     5.7   1024.0    0.00 
 329   12:40   0.56   67.0    42    4.9   284     6.6   1023.9    0.00 
 329   12:50   0.55   67.3    42    5.3   284     6.9   1023.9    0.00 
 329   13:00   0.54   67.5    40    5.2   281     6.9   1023.8    0.00 
 329   13:10   0.53   67.0    46    5.1   282     6.6   1023.8    0.00 
 329   13:20   0.52   66.7    43    5.9   288     7.0   1023.9    0.00 
 329   13:30   0.50   66.9    42    5.7   287     7.2   1023.9    0.00 
 329   13:40   0.49   67.5    41    5.8   285     7.4   1023.8    0.00 

Return to Norris Rancho Marino Reserve graphs page.


Western Regional Climate Center,wrcc@dri.edu